Time;durP1;ratioP1;P1;durP2;ratioP2;P2;SDS_P1;SDS_P2;PMS_P1;PMS_P2;Temp;Humidity;BMP_temperature;BMP_pressure;BME280_temperature;BME280_humidity;BME280_pressure;Samples;Min_cycle;Max_cycle;Signal;HPM_P1;HPM_P2
2021/01/11 00:02:13;;;;;;;3.50;2.37;;;;;;;;;;5033756;28;20030;-66
2021/01/11 00:04:40;;;;;;;4.00;2.40;;;;;;;;;;5033618;28;20048;-66
2021/01/11 00:07:08;;;;;;;6.97;4.67;;;;;;;;;;5033479;28;20033;-66
2021/01/11 00:09:34;;;;;;;12.17;10.17;;;;;;;;;;5032925;28;20033;-65
2021/01/11 00:12:00;;;;;;;8.07;6.00;;;;;;;;;;5033237;28;20036;-65
2021/01/11 00:14:26;;;;;;;7.50;5.03;;;;;;;;;;5033772;28;20032;-65
2021/01/11 00:16:52;;;;;;;4.50;3.30;;;;;;;;;;5033360;28;20108;-65
2021/01/11 00:19:18;;;;;;;4.47;2.90;;;;;;;;;;5033192;28;20108;-65
2021/01/11 00:21:50;;;;;;;4.03;2.97;;;;;;;;;;5032797;28;20116;-66
2021/01/11 00:24:16;;;;;;;4.00;2.80;;;;;;;;;;5033683;28;20167;-66
2021/01/11 00:26:49;;;;;;;3.67;2.60;;;;;;;;;;5033201;28;20470;-66
2021/01/11 00:29:15;;;;;;;;;;;;;;;;;;5033685;28;20056;-65
2021/01/11 00:31:41;;;;;;;5.30;3.43;;;;;;;;;;5033329;28;19913;-66
2021/01/11 00:34:07;;;;;;;4.53;3.43;;;;;;;;;;5033341;28;20018;-66
2021/01/11 00:36:33;;;;;;;6.00;3.70;;;;;;;;;;5033283;28;20029;-65
2021/01/11 00:38:59;;;;;;;4.93;3.40;;;;;;;;;;5033116;28;20021;-66
2021/01/11 00:41:26;;;;;;;4.47;3.10;;;;;;;;;;5033437;28;20044;-65
2021/01/11 00:43:52;;;;;;;5.43;3.83;;;;;;;;;;5033203;28;20036;-65
2021/01/11 00:46:22;;;;;;;4.97;3.40;;;;;;;;;;5033035;28;20045;-66
2021/01/11 00:48:48;;;;;;;5.17;3.33;;;;;;;;;;5033335;28;20029;-66
2021/01/11 00:51:14;;;;;;;3.87;2.80;;;;;;;;;;5032847;28;20118;-66
2021/01/11 00:53:40;;;;;;;4.83;2.90;;;;;;;;;;5032765;28;20029;-65
2021/01/11 00:56:06;;;;;;;3.43;2.40;;;;;;;;;;5032590;28;20033;-66
2021/01/11 00:58:32;;;;;;;4.20;2.70;;;;;;;;;;5032687;28;20029;-66
2021/01/11 01:00:58;;;;;;;3.40;2.53;;;;;;;;;;5032629;28;20530;-65
2021/01/11 01:03:24;;;;;;;3.33;2.47;;;;;;;;;;5033009;28;20038;-66
2021/01/11 01:05:50;;;;;;;4.57;2.43;;;;;;;;;;5032972;28;20120;-66
2021/01/11 01:08:16;;;;;;;3.93;2.60;;;;;;;;;;5033043;28;20021;-66
2021/01/11 01:10:42;;;;;;;4.23;2.87;;;;;;;;;;5032830;28;20117;-65
2021/01/11 01:13:08;;;;;;;4.07;2.67;;;;;;;;;;5032724;28;20022;-66
2021/01/11 01:15:35;;;;;;;3.77;2.63;;;;;;;;;;5032699;28;20030;-66
2021/01/11 01:18:01;;;;;;;4.03;2.77;;;;;;;;;;5032398;28;20713;-65
2021/01/11 01:20:27;;;;;;;4.43;2.97;;;;;;;;;;5032740;28;20029;-66
2021/01/11 01:22:53;;;;;;;5.13;3.53;;;;;;;;;;5032698;28;20026;-65
2021/01/11 01:25:19;;;;;;;4.97;3.50;;;;;;;;;;5032387;28;20101;-66
2021/01/11 01:27:45;;;;;;;5.33;3.63;;;;;;;;;;5032748;28;20026;-66
2021/01/11 01:30:11;;;;;;;5.60;3.03;;;;;;;;;;5032294;28;20037;-66
2021/01/11 01:32:38;;;;;;;6.03;3.53;;;;;;;;;;5034732;28;20074;-66
2021/01/11 01:35:04;;;;;;;5.43;2.97;;;;;;;;;;5036354;28;20393;-66
2021/01/11 01:37:30;;;;;;;4.27;3.10;;;;;;;;;;5036027;28;20032;-66
2021/01/11 01:39:57;;;;;;;3.87;2.63;;;;;;;;;;5036248;28;20378;-66
2021/01/11 01:42:23;;;;;;;3.90;2.77;;;;;;;;;;5036193;28;20061;-66
2021/01/11 01:44:49;;;;;;;4.20;2.60;;;;;;;;;;5036188;28;20036;-65
2021/01/11 01:47:15;;;;;;;4.50;2.73;;;;;;;;;;5035843;28;20029;-65
2021/01/11 01:49:41;;;;;;;3.33;2.30;;;;;;;;;;5036089;28;20029;-65
2021/01/11 01:52:08;;;;;;;3.40;2.50;;;;;;;;;;5036108;28;20103;-65
2021/01/11 01:54:34;;;;;;;3.80;2.77;;;;;;;;;;5036091;28;20026;-65
2021/01/11 01:57:01;;;;;;;4.37;2.60;;;;;;;;;;5035778;28;20029;-65
2021/01/11 01:59:28;;;;;;;3.77;2.23;;;;;;;;;;5032958;28;20161;-65
2021/01/11 02:01:54;;;;;;;4.17;2.67;;;;;;;;;;5032640;28;20053;-65
2021/01/11 02:04:20;;;;;;;3.33;2.23;;;;;;;;;;5033084;28;20076;-65
2021/01/11 02:06:48;;;;;;;3.60;2.60;;;;;;;;;;5034400;28;20034;-65
2021/01/11 02:09:17;;;;;;;4.50;2.90;;;;;;;;;;5035574;28;20021;-65
2021/01/11 02:11:48;;;;;;;4.07;2.83;;;;;;;;;;5035287;28;20120;-66
2021/01/11 02:14:33;;;;;;;3.60;2.60;;;;;;;;;;5035072;28;20068;-65
2021/01/11 02:17:03;;;;;;;3.70;2.23;;;;;;;;;;5035430;28;20030;-65
2021/01/11 02:19:41;;;;;;;3.83;2.47;;;;;;;;;;5035347;28;20071;-65
2021/01/11 02:22:07;;;;;;;2.83;2.20;;;;;;;;;;5035388;28;20028;-66
2021/01/11 02:24:39;;;;;;;3.90;2.50;;;;;;;;;;5035335;28;20125;-66
2021/01/11 02:27:13;;;;;;;4.75;2.40;;;;;;;;;;5035186;28;20103;-66
2021/01/11 02:29:57;;;;;;;3.57;2.37;;;;;;;;;;5034776;28;20486;-64
2021/01/11 02:32:24;;;;;;;3.43;2.47;;;;;;;;;;5035226;28;20083;-65
2021/01/11 02:34:51;;;;;;;3.83;2.37;;;;;;;;;;5035504;28;20061;-66
2021/01/11 02:37:17;;;;;;;3.93;2.80;;;;;;;;;;5034843;28;20076;-66
2021/01/11 02:39:44;;;;;;;3.03;2.20;;;;;;;;;;5035026;28;20084;-65
2021/01/11 02:42:10;;;;;;;3.03;2.03;;;;;;;;;;5035139;28;20021;-66
2021/01/11 02:44:36;;;;;;;3.77;2.47;;;;;;;;;;5034024;28;20025;-65
2021/01/11 02:47:02;;;;;;;4.30;2.13;;;;;;;;;;5034854;28;20025;-66
2021/01/11 02:49:33;;;;;;;3.33;2.40;;;;;;;;;;5035065;28;20363;-65
2021/01/11 02:52:05;;;;;;;4.17;2.53;;;;;;;;;;5034500;28;20033;-65
2021/01/11 02:54:38;;;;;;;3.38;2.33;;;;;;;;;;5034904;28;20021;-66
2021/01/11 02:57:04;;;;;;;3.50;2.53;;;;;;;;;;5034719;28;20171;-66
2021/01/11 02:59:36;;;;;;;3.57;2.60;;;;;;;;;;5033086;28;20544;-64
2021/01/11 03:02:04;;;;;;;3.72;2.42;;;;;;;;;;5034759;28;20021;-65
2021/01/11 03:04:31;;;;;;;3.27;2.20;;;;;;;;;;5034653;28;20036;-66
2021/01/11 03:07:01;;;;;;;3.67;2.40;;;;;;;;;;5034683;28;20442;-65
2021/01/11 03:09:28;;;;;;;3.23;2.30;;;;;;;;;;5034455;28;20026;-65
2021/01/11 03:11:54;;;;;;;3.30;2.37;;;;;;;;;;5034475;28;20037;-65
2021/01/11 03:14:21;;;;;;;3.60;2.40;;;;;;;;;;5034467;28;20021;-66
2021/01/11 03:16:47;;;;;;;3.27;2.50;;;;;;;;;;5034721;28;20474;-65
2021/01/11 03:19:13;;;;;;;4.33;2.70;;;;;;;;;;5034335;28;20049;-65
2021/01/11 03:21:40;;;;;;;3.17;2.30;;;;;;;;;;5034493;28;20030;-65
2021/01/11 03:24:06;;;;;;;3.27;2.30;;;;;;;;;;5034541;28;20013;-65
2021/01/11 03:26:33;;;;;;;3.50;2.23;;;;;;;;;;5034156;28;20052;-65
2021/01/11 03:28:59;;;;;;;3.33;2.00;;;;;;;;;;5034169;28;20425;-66
2021/01/11 03:31:25;;;;;;;3.67;2.50;;;;;;;;;;5034019;28;20033;-66
2021/01/11 03:33:51;;;;;;;2.97;2.40;;;;;;;;;;5034151;28;20390;-65
2021/01/11 03:36:17;;;;;;;2.97;2.33;;;;;;;;;;5034007;28;20025;-64
2021/01/11 03:38:44;;;;;;;3.93;2.10;;;;;;;;;;5032783;28;20049;-66
2021/01/11 03:41:10;;;;;;;2.40;1.90;;;;;;;;;;5033477;28;20394;-65
2021/01/11 03:43:40;;;;;;;5.47;2.40;;;;;;;;;;5033722;28;20502;-65
2021/01/11 03:46:07;;;;;;;3.60;2.23;;;;;;;;;;5033443;28;20032;-66
2021/01/11 03:48:33;;;;;;;3.20;2.40;;;;;;;;;;5033705;28;20147;-65
2021/01/11 03:51:03;;;;;;;4.13;2.60;;;;;;;;;;5033643;28;20081;-65
2021/01/11 03:53:29;;;;;;;3.73;2.37;;;;;;;;;;5033658;28;20029;-66
2021/01/11 03:55:55;;;;;;;4.77;2.30;;;;;;;;;;5033697;28;20552;-65
2021/01/11 03:58:21;;;;;;;3.20;2.10;;;;;;;;;;5033307;28;20386;-65
2021/01/11 04:00:50;;;;;;;3.27;2.30;;;;;;;;;;5033702;28;20417;-64
2021/01/11 04:03:17;;;;;;;3.23;2.20;;;;;;;;;;5033487;28;20021;-66
2021/01/11 04:05:44;;;;;;;3.20;2.27;;;;;;;;;;5033678;28;20032;-65
2021/01/11 04:08:10;;;;;;;3.53;2.40;;;;;;;;;;5033332;28;20089;-65
2021/01/11 04:10:36;;;;;;;3.43;2.30;;;;;;;;;;5032674;28;20475;-64
2021/01/11 04:13:02;;;;;;;3.07;2.30;;;;;;;;;;5032802;28;20093;-65
2021/01/11 04:15:28;;;;;;;2.97;2.30;;;;;;;;;;5033288;28;20017;-65
2021/01/11 04:17:54;;;;;;;2.77;2.03;;;;;;;;;;5033061;28;20045;-65
2021/01/11 04:20:20;;;;;;;3.27;2.47;;;;;;;;;;5033464;28;20467;-65
2021/01/11 04:22:46;;;;;;;3.13;2.20;;;;;;;;;;5033423;28;20021;-65
2021/01/11 04:25:12;;;;;;;5.23;2.30;;;;;;;;;;5033344;28;20033;-65
2021/01/11 04:27:38;;;;;;;3.37;2.40;;;;;;;;;;5032945;28;20514;-66
2021/01/11 04:30:06;;;;;;;3.80;2.60;;;;;;;;;;5033138;28;20159;-65
2021/01/11 04:32:34;;;;;;;3.63;2.50;;;;;;;;;;5033091;28;20053;-66
2021/01/11 04:35:00;;;;;;;3.87;2.63;;;;;;;;;;5033341;28;20382;-65
2021/01/11 04:37:26;;;;;;;3.43;2.60;;;;;;;;;;5032749;28;20025;-65
2021/01/11 04:39:52;;;;;;;4.10;2.67;;;;;;;;;;5032935;28;20111;-65
2021/01/11 04:42:23;;;;;;;4.40;2.70;;;;;;;;;;5033192;28;20517;-65
2021/01/11 04:44:49;;;;;;;4.10;2.60;;;;;;;;;;5033182;28;20068;-65
2021/01/11 04:47:15;;;;;;;3.63;2.70;;;;;;;;;;5033072;28;20033;-66
2021/01/11 04:49:41;;;;;;;4.03;2.47;;;;;;;;;;5032618;28;20076;-65
2021/01/11 04:52:08;;;;;;;3.67;2.77;;;;;;;;;;5033183;28;20437;-66
2021/01/11 04:54:37;;;;;;;3.93;2.50;;;;;;;;;;5032987;28;20500;-65
2021/01/11 04:57:03;;;;;;;4.33;2.23;;;;;;;;;;5032967;28;20061;-64
2021/01/11 04:59:33;;;;;;;3.50;2.37;;;;;;;;;;5032767;28;20112;-65
2021/01/11 05:02:00;;;;;;;3.90;2.70;;;;;;;;;;5032799;28;20021;-65
2021/01/11 05:04:26;;;;;;;5.03;2.70;;;;;;;;;;5032968;28;20025;-66
2021/01/11 05:06:54;;;;;;;3.50;2.53;;;;;;;;;;5033879;28;20022;-65
2021/01/11 05:09:21;;;;;;;4.13;2.80;;;;;;;;;;5037114;28;20103;-65
2021/01/11 05:11:47;;;;;;;3.63;2.50;;;;;;;;;;5036564;28;20390;-66
2021/01/11 05:14:17;;;;;;;5.47;2.60;;;;;;;;;;5036196;28;20529;-65
2021/01/11 05:16:43;;;;;;;5.37;2.70;;;;;;;;;;5036965;28;20021;-65
2021/01/11 05:19:25;;;;;;;4.50;3.00;;;;;;;;;;5036723;28;20045;-65
2021/01/11 05:21:52;;;;;;;5.07;3.20;;;;;;;;;;5036597;28;20029;-65
2021/01/11 05:24:28;;;;;;;5.13;3.33;;;;;;;;;;5036482;28;20439;-65
2021/01/11 05:26:54;;;;;;;4.87;3.13;;;;;;;;;;5036649;28;20108;-65
2021/01/11 05:29:20;;;;;;;4.80;3.10;;;;;;;;;;5036473;28;20572;-65
2021/01/11 05:31:53;;;;;;;6.80;3.47;;;;;;;;;;5036259;28;20041;-65
2021/01/11 05:34:19;;;;;;;5.07;2.93;;;;;;;;;;5036074;28;20492;-66
2021/01/11 05:36:46;;;;;;;7.87;3.00;;;;;;;;;;5036276;28;20017;-66
2021/01/11 05:39:12;;;;;;;4.43;3.20;;;;;;;;;;5036492;28;20024;-65
2021/01/11 05:41:42;;;;;;;4.03;2.90;;;;;;;;;;5036398;28;20057;-65
2021/01/11 05:44:12;;;;;;;4.60;3.23;;;;;;;;;;5036054;28;20025;-66
2021/01/11 05:46:39;;;;;;;5.60;3.47;;;;;;;;;;5035917;28;20072;-65
2021/01/11 05:49:12;;;;;;;4.70;3.20;;;;;;;;;;5036010;28;20037;-65
2021/01/11 05:51:38;;;;;;;;;;;;;;;;;;5036348;28;20042;-65
2021/01/11 05:54:05;;;;;;;7.70;3.60;;;;;;;;;;5035795;28;19911;-65
2021/01/11 05:56:54;;;;;;;10.03;4.03;;;;;;;;;;5035767;28;20026;-65
2021/01/11 05:59:20;;;;;;;8.57;3.47;;;;;;;;;;5035315;28;20033;-65
2021/01/11 06:01:46;;;;;;;10.93;4.13;;;;;;;;;;5036053;28;20013;-65
2021/01/11 06:04:12;;;;;;;7.80;3.67;;;;;;;;;;5035892;28;20048;-66
2021/01/11 06:06:40;;;;;;;6.40;3.47;;;;;;;;;;5035766;28;20109;-65
2021/01/11 06:09:06;;;;;;;7.20;4.00;;;;;;;;;;5035714;28;20022;-65
2021/01/11 06:11:35;;;;;;;10.70;3.90;;;;;;;;;;5035579;28;20368;-64
2021/01/11 06:14:02;;;;;;;9.20;4.07;;;;;;;;;;5035644;28;20036;-65
2021/01/11 06:16:28;;;;;;;10.17;3.90;;;;;;;;;;5035788;28;20463;-64
2021/01/11 06:18:54;;;;;;;6.93;4.20;;;;;;;;;;5033854;28;20132;-66
2021/01/11 06:21:21;;;;;;;6.93;4.60;;;;;;;;;;5035689;28;20072;-65
2021/01/11 06:23:47;;;;;;;8.60;4.50;;;;;;;;;;5035316;28;20025;-65
2021/01/11 06:26:25;;;;;;;5.43;3.87;;;;;;;;;;5035415;28;20053;-66
2021/01/11 06:28:52;;;;;;;9.67;4.23;;;;;;;;;;5035471;28;20104;-65
2021/01/11 06:31:18;;;;;;;6.07;4.47;;;;;;;;;;5035166;28;20067;-65
2021/01/11 06:33:44;;;;;;;7.60;3.67;;;;;;;;;;5035392;28;20084;-65
2021/01/11 06:36:23;;;;;;;5.47;3.60;;;;;;;;;;5035244;28;20029;-65
2021/01/11 06:38:49;;;;;;;5.93;3.80;;;;;;;;;;5035140;28;20036;-65
2021/01/11 06:41:16;;;;;;;3.70;2.60;;;;;;;;;;5034935;28;20108;-65
2021/01/11 06:43:45;;;;;;;5.53;3.00;;;;;;;;;;5034932;28;20386;-65
2021/01/11 06:46:30;;;;;;;4.60;3.00;;;;;;;;;;5035479;28;20041;-67
2021/01/11 06:48:57;;;;;;;5.77;3.33;;;;;;;;;;5033522;28;20021;-66
2021/01/11 06:51:29;;;;;;;7.07;4.00;;;;;;;;;;5033580;28;20091;-66
2021/01/11 06:54:11;;;;;;;6.43;4.03;;;;;;;;;;5034590;28;20018;-65
2021/01/11 06:56:38;;;;;;;6.43;4.53;;;;;;;;;;5034617;28;20029;-65
2021/01/11 06:59:07;;;;;;;7.80;4.47;;;;;;;;;;5034994;28;20025;-66
2021/01/11 07:01:37;;;;;;;5.87;3.90;;;;;;;;;;5034810;28;20076;-66
2021/01/11 07:04:03;;;;;;;5.47;3.50;;;;;;;;;;5034909;28;20025;-66
2021/01/11 07:06:33;;;;;;;5.13;3.70;;;;;;;;;;5034540;28;20120;-66
2021/01/11 07:09:19;;;;;;;7.23;4.43;;;;;;;;;;5035019;28;20093;-66
2021/01/11 07:11:49;;;;;;;6.37;3.73;;;;;;;;;;5034047;28;20061;-66
2021/01/11 07:14:21;;;;;;;5.67;3.43;;;;;;;;;;5034724;28;20052;-66
2021/01/11 07:16:49;;;;;;;11.83;3.90;;;;;;;;;;5034269;28;20048;-66
2021/01/11 07:19:20;;;;;;;8.73;3.87;;;;;;;;;;5031948;28;20057;-66
2021/01/11 07:21:49;;;;;;;5.20;3.40;;;;;;;;;;5032016;28;20033;-66
2021/01/11 07:24:15;;;;;;;6.87;4.17;;;;;;;;;;5029862;28;20083;-66
2021/01/11 07:26:41;;;;;;;5.63;3.90;;;;;;;;;;5031492;28;20038;-65
2021/01/11 07:29:12;;;;;;;8.03;3.80;;;;;;;;;;5031794;28;20128;-65
2021/01/11 07:31:42;;;;;;;6.20;3.70;;;;;;;;;;5037375;28;20491;-65
2021/01/11 07:34:10;;;;;;;9.07;3.60;;;;;;;;;;5043880;28;20120;-67
2021/01/11 07:36:43;;;;;;;10.90;4.30;;;;;;;;;;5040748;28;20605;-67
2021/01/11 07:39:09;;;;;;;;;;;;;;;;;;5046527;28;20021;-66
2021/01/11 07:41:37;;;;;;;6.47;4.70;;;;;;;;;;5043614;28;19938;-65
2021/01/11 07:44:21;;;;;;;5.23;3.83;;;;;;;;;;5043263;28;20024;-65
2021/01/11 07:46:58;;;;;;;5.57;3.77;;;;;;;;;;5042159;28;20021;-67
2021/01/11 07:49:25;;;;;;;6.67;4.30;;;;;;;;;;5041666;28;20208;-66
2021/01/11 07:51:51;;;;;;;6.17;4.10;;;;;;;;;;5042923;28;20426;-67
2021/01/11 07:54:18;;;;;;;4.33;3.07;;;;;;;;;;5050845;28;20457;-66
2021/01/11 07:56:45;;;;;;;5.17;3.57;;;;;;;;;;5053428;28;20116;-65
2021/01/11 07:59:11;;;;;;;7.93;3.60;;;;;;;;;;5053488;28;20466;-67
2021/01/11 08:01:38;;;;;;;6.13;3.77;;;;;;;;;;5053724;28;20079;-67
2021/01/11 08:04:04;;;;;;;5.30;3.50;;;;;;;;;;5053416;28;20040;-67
2021/01/11 08:06:42;;;;;;;5.50;3.60;;;;;;;;;;5053434;28;20099;-67
2021/01/11 08:09:08;;;;;;;7.00;4.07;;;;;;;;;;5053291;28;20032;-67
2021/01/11 08:11:34;;;;;;;8.80;3.60;;;;;;;;;;5053065;28;20187;-66
2021/01/11 08:14:10;;;;;;;5.50;3.63;;;;;;;;;;5050402;28;20120;-66
2021/01/11 08:16:37;;;;;;;4.90;3.43;;;;;;;;;;5053181;28;20021;-66
2021/01/11 08:19:04;;;;;;;8.10;3.90;;;;;;;;;;5051900;28;20589;-67
2021/01/11 08:21:30;;;;;;;4.53;3.50;;;;;;;;;;5048527;28;20111;-67
2021/01/11 08:24:00;;;;;;;4.83;3.40;;;;;;;;;;5048473;28;20028;-66
2021/01/11 08:26:27;;;;;;;6.13;3.80;;;;;;;;;;5052122;28;20040;-66
2021/01/11 08:28:54;;;;;;;4.40;3.13;;;;;;;;;;5053038;28;20025;-66
2021/01/11 08:31:20;;;;;;;5.27;3.93;;;;;;;;;;5052862;28;20533;-66
2021/01/11 08:33:46;;;;;;;5.60;3.80;;;;;;;;;;5052901;28;20052;-66
2021/01/11 08:36:20;;;;;;;6.17;3.80;;;;;;;;;;5052826;28;20033;-66
2021/01/11 08:39:01;;;;;;;5.00;3.77;;;;;;;;;;5052989;28;20032;-67
2021/01/11 08:41:28;;;;;;;5.60;3.60;;;;;;;;;;5052190;28;20028;-66
2021/01/11 08:43:54;;;;;;;7.40;3.90;;;;;;;;;;5052793;28;20028;-67
2021/01/11 08:46:20;;;;;;;5.33;3.50;;;;;;;;;;5052780;28;20028;-66
2021/01/11 08:48:47;;;;;;;5.00;3.53;;;;;;;;;;5052676;28;20171;-66
2021/01/11 08:51:25;;;;;;;5.30;3.60;;;;;;;;;;5052858;28;20033;-66
2021/01/11 08:53:51;;;;;;;5.73;3.70;;;;;;;;;;5052529;28;20031;-66
2021/01/11 08:56:27;;;;;;;4.97;3.27;;;;;;;;;;5052527;28;20029;-67
2021/01/11 08:58:54;;;;;;;4.23;3.20;;;;;;;;;;5052843;28;20024;-66
2021/01/11 09:01:25;;;;;;;6.93;4.07;;;;;;;;;;5052733;28;20470;-66
2021/01/11 09:03:55;;;;;;;6.57;3.57;;;;;;;;;;5052545;28;20481;-66
2021/01/11 09:06:39;;;;;;;4.90;3.07;;;;;;;;;;5052502;28;20025;-67
2021/01/11 09:09:05;;;;;;;10.93;9.50;;;;;;;;;;5052796;28;20474;-66
2021/01/11 09:11:31;;;;;;;8.60;6.50;;;;;;;;;;5052493;28;20040;-67
2021/01/11 09:14:23;;;;;;;5.20;4.27;;;;;;;;;;5052659;28;20025;-66
2021/01/11 09:16:56;;;;;;;5.83;3.80;;;;;;;;;;5050258;28;20044;-66
2021/01/11 09:19:22;;;;;;;7.20;3.85;;;;;;;;;;5049222;28;20048;-66
2021/01/11 09:21:59;;;;;;;5.47;3.40;;;;;;;;;;5042920;28;20053;-67
2021/01/11 09:24:25;;;;;;;4.30;3.20;;;;;;;;;;5032136;28;20496;-66
2021/01/11 09:26:52;;;;;;;7.03;3.80;;;;;;;;;;5031532;28;20064;-66
2021/01/11 09:29:19;;;;;;;5.73;3.73;;;;;;;;;;5030492;28;20026;-66
2021/01/11 09:31:45;;;;;;;5.10;3.37;;;;;;;;;;5032006;28;20498;-67
2021/01/11 09:34:11;;;;;;;5.27;3.57;;;;;;;;;;5032000;28;20060;-66
2021/01/11 09:36:38;;;;;;;6.03;3.63;;;;;;;;;;5031864;28;20026;-66
2021/01/11 09:39:08;;;;;;;5.73;3.60;;;;;;;;;;5032522;28;20468;-65
2021/01/11 09:41:41;;;;;;;5.47;3.00;;;;;;;;;;5032222;28;20036;-66
2021/01/11 09:44:07;;;;;;;;;;;;;;;;;;5032327;28;20132;-66
2021/01/11 09:46:39;;;;;;;5.17;3.83;;;;;;;;;;5032054;28;20370;-67
2021/01/11 09:49:05;;;;;;;5.55;3.55;;;;;;;;;;5030905;28;20096;-66
2021/01/11 09:51:31;;;;;;;4.63;3.33;;;;;;;;;;5031164;28;20493;-65
2021/01/11 09:53:57;;;;;;;5.97;3.67;;;;;;;;;;5034485;28;20014;-66
2021/01/11 09:56:23;;;;;;;6.30;4.23;;;;;;;;;;5034186;28;20386;-66
2021/01/11 09:58:51;;;;;;;6.47;3.83;;;;;;;;;;5035292;28;20072;-67
2021/01/11 10:01:17;;;;;;;10.60;4.67;;;;;;;;;;5035455;28;20410;-67
2021/01/11 10:03:43;;;;;;;6.93;3.97;;;;;;;;;;5035627;28;20049;-66
2021/01/11 10:06:10;;;;;;;8.57;4.13;;;;;;;;;;5035806;28;20028;-67
2021/01/11 10:08:36;;;;;;;7.93;3.77;;;;;;;;;;5035746;28;20060;-66
2021/01/11 10:11:11;;;;;;;6.97;4.27;;;;;;;;;;5035595;28;20037;-66
2021/01/11 10:13:37;;;;;;;5.50;4.10;;;;;;;;;;5035420;28;20026;-67
2021/01/11 10:16:03;;;;;;;6.07;4.03;;;;;;;;;;5035502;28;20426;-67
2021/01/11 10:18:29;;;;;;;4.90;3.40;;;;;;;;;;5035154;28;20048;-66
2021/01/11 10:20:55;;;;;;;5.67;3.80;;;;;;;;;;5035052;28;20112;-66
2021/01/11 10:23:21;;;;;;;6.70;3.93;;;;;;;;;;5035677;28;20096;-65
2021/01/11 10:25:47;;;;;;;5.30;3.60;;;;;;;;;;5035532;28;20075;-65
2021/01/11 10:28:13;;;;;;;5.20;3.90;;;4.80;59.40;;;;;;5035731;28;20057;-66
2021/01/11 10:30:39;;;;;;;5.83;3.93;;;6.20;47.40;;;;;;5035623;28;20065;-66
2021/01/11 10:33:05;;;;;;;5.77;3.83;;;;;;;;;;5035736;28;20498;-66
2021/01/11 10:35:33;;;;;;;5.93;4.20;;;;;;;;;;5035744;28;20022;-66
2021/01/11 10:37:59;;;;;;;7.97;4.67;;;;;;;;;;5035453;28;20028;-66
2021/01/11 10:40:25;;;;;;;6.53;4.07;;;;;;;;;;5034748;28;20022;-66
2021/01/11 10:42:51;;;;;;;6.27;4.53;;;;;;;;;;5035366;28;20116;-66
2021/01/11 10:45:17;;;;;;;7.77;3.90;;;;;;;;;;5035265;28;20376;-67
2021/01/11 10:47:43;;;;;;;5.30;3.67;;;;;;;;;;5035084;28;20431;-65
2021/01/11 10:50:09;;;;;;;7.13;3.67;;;;;;;;;;5033471;28;20486;-66
2021/01/11 10:52:36;;;;;;;9.40;4.37;;;;;;;;;;5035343;28;20379;-66
2021/01/11 10:55:02;;;;;;;4.57;3.43;;;;;;;;;;5035154;28;20071;-66
2021/01/11 10:57:28;;;;;;;5.17;3.77;;;;;;;;;;5034553;28;20029;-66
2021/01/11 10:59:54;;;;;;;5.13;3.53;;;;;;;;;;5034691;28;20022;-66
2021/01/11 11:02:20;;;;;;;5.93;3.83;;;;;;;;;;5034748;28;20029;-66
2021/01/11 11:04:46;;;;;;;11.47;4.13;;;;;;;;;;5034022;28;20018;-66
2021/01/11 11:07:12;;;;;;;5.23;3.50;;;;;;;;;;5034103;28;20052;-66
2021/01/11 11:09:38;;;;;;;4.97;3.40;;;;;;;;;;5034430;28;20029;-65
2021/01/11 11:12:04;;;;;;;5.33;3.80;;;;;;;;;;5034694;28;20091;-67
2021/01/11 11:14:30;;;;;;;6.03;3.60;;;;;;;;;;5034581;28;20029;-66
2021/01/11 11:16:57;;;;;;;6.67;3.37;;;;;;;;;;5034179;28;20040;-66
2021/01/11 11:19:23;;;;;;;4.87;3.57;;;;;;;;;;5034208;28;20080;-67
2021/01/11 11:21:49;;;;;;;5.07;3.67;;;;;;;;;;5034466;28;20104;-66
2021/01/11 11:24:15;;;;;;;5.87;3.77;;;;;;;;;;5034552;28;20025;-66
2021/01/11 11:26:41;;;;;;;6.80;4.30;;;;;;;;;;5032212;28;20565;-66
2021/01/11 11:29:07;;;;;;;6.40;4.07;;;;;;;;;;5032186;28;20029;-66
2021/01/11 11:31:37;;;;;;;7.43;3.43;;;;;;;;;;5032736;28;20121;-66
2021/01/11 11:34:03;;;;;;;6.27;3.73;;;;;;;;;;5034181;28;20093;-66
2021/01/11 11:36:29;;;;;;;5.73;3.90;;;;;;;;;;5034082;28;20072;-66
2021/01/11 11:38:55;;;;;;;5.97;3.57;;;;;;;;;;5033951;28;20414;-66
2021/01/11 11:41:21;;;;;;;7.50;4.30;;;;;;;;;;5033760;28;20140;-65
2021/01/11 11:43:47;;;;;;;5.30;3.67;;;;;;;;;;5033821;28;20152;-64
2021/01/11 11:46:14;;;;;;;6.63;3.27;;;;;;;;;;5033758;28;20029;-65
2021/01/11 11:48:40;;;;;;;4.60;3.37;;;;;;;;;;5033914;28;20026;-65
2021/01/11 11:51:06;;;;;;;6.17;3.70;;;;;;;;;;5033829;28;20041;-66
2021/01/11 11:53:32;;;;;;;4.47;3.30;;;;;;;;;;5033857;28;20060;-64
2021/01/11 11:55:58;;;;;;;5.50;3.80;;;;;;;;;;5033941;28;20061;-65
2021/01/11 11:58:24;;;;;;;4.83;3.30;;;;;;;;;;5033380;28;20033;-65
2021/01/11 12:00:50;;;;;;;6.83;3.70;;;;;;;;;;5033643;28;20037;-65
2021/01/11 12:03:16;;;;;;;5.50;3.63;;;;;;;;;;5033467;28;20021;-66
2021/01/11 12:05:42;;;;;;;6.13;3.80;;;;;;;;;;5032093;28;20420;-68
2021/01/11 12:08:08;;;;;;;5.50;3.63;;;;;;;;;;5030416;28;20029;-67
2021/01/11 12:10:34;;;;;;;4.87;3.37;;;;;;;;;;5030841;28;20033;-66
2021/01/11 12:13:00;;;;;;;5.90;4.13;;;;;;;;;;5031523;28;20032;-66
2021/01/11 12:15:26;;;;;;;5.27;3.70;;;;;;;;;;5033443;28;20471;-67
2021/01/11 12:17:52;;;;;;;6.37;3.73;;;;;;;;;;5032033;28;20088;-67
2021/01/11 12:20:19;;;;;;;6.13;3.63;;;;;;;;;;5033325;28;20061;-68
2021/01/11 12:22:45;;;;;;;5.43;4.00;;;;;;;;;;5033037;28;20377;-68
2021/01/11 12:25:11;;;;;;;5.03;3.47;;;;;;;;;;5032888;28;20059;-67
2021/01/11 12:27:37;;;;;;;8.20;3.87;;;;;;;;;;5033272;28;20087;-67
2021/01/11 12:30:04;;;;;;;4.60;3.37;;;;;;;;;;5033186;28;20033;-67
2021/01/11 12:32:31;;;;;;;7.77;4.00;;;;;;;;;;5033051;28;20478;-67
2021/01/11 12:34:57;;;;;;;5.13;3.67;;;;;;;;;;5033132;28;20045;-67
2021/01/11 12:37:23;;;;;;;6.17;3.80;;;;;;;;;;5032532;28;20079;-67
2021/01/11 12:39:49;;;;;;;8.27;3.67;;;;;;;;;;5029716;28;20104;-67
2021/01/11 12:42:15;;;;;;;4.80;3.37;;;;;;;;;;5021948;28;20036;-67
2021/01/11 12:44:42;;;;;;;6.73;3.83;;;;;;;;;;5032237;28;20433;-67
2021/01/11 12:47:08;;;;;;;4.47;3.17;;;;;;;;;;5029823;28;20033;-67
2021/01/11 12:49:37;;;;;;;4.70;3.47;;;;;;;;;;5032808;28;20585;-67
2021/01/11 12:52:03;;;;;;;6.73;3.43;;;;;;;;;;5032841;28;20453;-68
2021/01/11 12:54:29;;;;;;;4.87;3.50;;;;;;;;;;5032715;28;20356;-68
2021/01/11 12:56:55;;;;;;;7.97;3.70;;;;;;;;;;5032915;28;20075;-68
2021/01/11 12:59:21;;;;;;;4.33;3.30;;;;;;;;;;5032948;28;20083;-68
2021/01/11 13:01:47;;;;;;;4.27;3.10;;;;;;;;;;5032895;28;20030;-69
2021/01/11 13:04:14;;;;;;;4.73;3.40;;;;;;;;;;5032686;28;20109;-68
2021/01/11 13:06:41;;;;;;;5.63;3.77;;;;;;;;;;5033001;28;20017;-67
2021/01/11 13:09:08;;;;;;;5.43;3.83;;;;;;;;;;5030148;28;20060;-68
2021/01/11 13:11:37;;;;;;;4.57;3.33;;;;;;;;;;5029883;28;20033;-68
2021/01/11 13:14:03;;;;;;;7.47;3.33;;;;;;;;;;5024553;28;20014;-68
2021/01/11 13:16:39;;;;;;;6.40;4.13;;;;;;;;;;5022207;28;20029;-68
2021/01/11 13:19:06;;;;;;;4.60;3.53;;;;;;;;;;5021632;28;20046;-68
2021/01/11 13:21:33;;;;;;;4.47;3.23;;;;;;;;;;5027578;28;20030;-68
2021/01/11 13:23:59;;;;;;;5.60;3.57;;;;;;;;;;5031781;28;20034;-68
2021/01/11 13:26:26;;;;;;;4.30;3.20;;;;;;;;;;5029919;28;20409;-68
2021/01/11 13:28:53;;;;;;;4.83;3.20;;;;;;;;;;5032041;28;20045;-68
2021/01/11 13:31:20;;;;;;;6.23;3.80;;;;;;;;;;5030860;28;20044;-68
2021/01/11 13:33:46;;;;;;;4.83;3.40;;;;;;;;;;5016355;28;20028;-68
2021/01/11 13:36:12;;;;;;;5.67;3.60;;;;;;;;;;5016310;28;20092;-68
2021/01/11 13:38:40;;;;;;;6.80;3.40;;;;;;;;;;5016483;28;20080;-69
2021/01/11 13:41:06;;;;;;;5.40;3.70;;;;;;;;;;5016525;28;20046;-69
2021/01/11 13:43:32;;;;;;;5.83;3.70;;;;;;;;;;5016261;28;20082;-68
2021/01/11 13:45:58;;;;;;;6.20;4.20;;;;;;;;;;5016375;28;20026;-69
2021/01/11 13:48:25;;;;;;;4.63;3.27;;;;;;;;;;5016084;28;20434;-68
2021/01/11 13:50:51;;;;;;;5.20;3.00;;;;;;;;;;5016197;28;20045;-69
2021/01/11 13:53:17;;;;;;;5.33;3.33;;;;;;;;;;5016632;28;20531;-70
2021/01/11 13:55:43;;;;;;;5.20;3.40;;;;;;;;;;5016358;28;20034;-70
2021/01/11 13:58:09;;;;;;;6.17;3.60;;;;;;;;;;5015959;28;20033;-69
2021/01/11 14:00:35;;;;;;;5.97;3.40;;;;;;;;;;5026860;28;20037;-69
2021/01/11 14:03:01;;;;;;;6.63;3.70;;;;;;;;;;5035750;28;20414;-69
2021/01/11 14:05:27;;;;;;;4.63;3.07;;;;;;;;;;5035876;28;20025;-69
2021/01/11 14:07:53;;;;;;;6.07;3.47;;;;;;;;;;5035847;28;20052;-68
2021/01/11 14:10:19;;;;;;;4.33;3.30;;;;;;;;;;5035784;28;20502;-68
2021/01/11 14:12:45;;;;;;;5.30;3.40;;;;;;;;;;5035629;28;20498;-68
2021/01/11 14:15:12;;;;;;;4.60;3.30;;;;;;;;;;5035673;28;20159;-68
2021/01/11 14:17:39;;;;;;;6.03;3.67;;;;;;;;;;5035690;28;20025;-69
2021/01/11 14:20:05;;;;;;;4.80;3.30;;;;;;;;;;5035626;28;20026;-68
2021/01/11 14:22:31;;;;;;;5.07;3.27;;;;;;;;;;5035403;28;20033;-68
2021/01/11 14:24:57;;;;;;;8.10;3.20;;;;;;;;;;5034400;28;20025;-68
2021/01/11 14:27:23;;;;;;;4.63;3.20;;;;;;;;;;5034830;28;20053;-69
2021/01/11 14:29:49;;;;;;;8.53;3.27;;;;;;;;;;5034552;28;20025;-69
2021/01/11 14:32:15;;;;;;;5.67;3.47;;;;;;;;;;5033632;28;20056;-69
2021/01/11 14:34:41;;;;;;;6.50;2.90;;;;;;;;;;5033283;28;20033;-68
2021/01/11 14:37:08;;;;;;;6.77;3.70;;;;;;;;;;5034894;28;20030;-68
2021/01/11 14:39:34;;;;;;;6.33;3.23;;;;;;;;;;5033433;28;20033;-68
2021/01/11 14:42:07;;;;;;;6.87;3.33;;;;;;;;;;5034589;28;20021;-67
2021/01/11 14:44:33;;;;;;;;;;;;;;;;;;5033676;28;20029;-68
2021/01/11 14:47:00;;;;;;;6.00;3.10;;;;;;;;;;5034677;28;19912;-68